Time;durP1;ratioP1;P1;durP2;ratioP2;P2;SDS_P1;SDS_P2;PMS_P1;PMS_P2;Temp;Humidity;BMP_temperature;BMP_pressure;BME280_temperature;BME280_humidity;BME280_pressure;Samples;Min_cycle;Max_cycle;Signal;HPM_P1;HPM_P2
2021/11/23 00:01:15;;;;;;;1.00;0.45;;;3.40;92.90;;;;;;4819073;29;20038;-77
2021/11/23 00:03:43;;;;;;;1.33;0.40;;;3.30;92.90;;;;;;4795725;29;20448;-77
2021/11/23 00:06:10;;;;;;;1.35;0.30;;;3.30;92.90;;;;;;4812499;29;20078;-77
2021/11/23 00:08:38;;;;;;;1.50;0.40;;;3.30;93.10;;;;;;4810169;29;20510;-77
2021/11/23 00:11:05;;;;;;;0.75;0.30;;;3.40;92.90;;;;;;4828878;29;20030;-77
2021/11/23 00:13:32;;;;;;;0.75;0.30;;;3.30;92.90;;;;;;4792330;29;20463;-77
2021/11/23 00:15:59;;;;;;;1.40;0.40;;;3.30;92.90;;;;;;4811483;29;20054;-77
2021/11/23 00:18:26;;;;;;;1.15;0.30;;;3.30;92.90;;;;;;4812813;29;20130;-77
2021/11/23 00:20:53;;;;;;;1.08;0.40;;;3.40;93.00;;;;;;4798452;29;20123;-77
2021/11/23 00:23:20;;;;;;;0.88;0.30;;;3.40;93.00;;;;;;4812129;29;20526;-77
2021/11/23 00:25:47;;;;;;;0.97;0.40;;;3.40;93.00;;;;;;4811366;29;20058;-77
2021/11/23 00:28:17;;;;;;;0.50;0.20;;;3.30;93.30;;;;;;4793986;29;20508;-77
2021/11/23 00:30:46;;;;;;;1.10;0.20;;;3.30;93.00;;;;;;4794993;29;20494;-77
2021/11/23 00:33:13;;;;;;;0.80;0.38;;;3.30;93.00;;;;;;4810782;29;20129;-77
2021/11/23 00:35:41;;;;;;;0.73;0.30;;;3.40;93.00;;;;;;4811415;29;20053;-77
2021/11/23 00:38:13;;;;;;;0.63;0.30;;;3.40;93.30;;;;;;4812597;29;20112;-78
2021/11/23 00:40:40;;;;;;;0.52;0.20;;;3.50;93.00;;;;;;4809853;29;20138;-77
2021/11/23 00:43:07;;;;;;;1.27;0.45;;;3.50;93.00;;;;;;4809229;29;20062;-77
2021/11/23 00:45:35;;;;;;;0.98;0.35;;;3.60;93.00;;;;;;4805766;29;20051;-77
2021/11/23 00:48:03;;;;;;;0.82;0.40;;;3.70;92.90;;;;;;4807586;29;20042;-77
2021/11/23 00:50:32;;;;;;;2.42;0.50;;;3.80;92.90;;;;;;4789899;29;20050;-78
2021/11/23 00:52:59;;;;;;;1.05;0.30;;;3.90;92.80;;;;;;4793637;29;20161;-78
2021/11/23 00:55:28;;;;;;;2.70;1.00;;;4.00;92.80;;;;;;4791622;29;20071;-78
2021/11/23 00:57:55;;;;;;;1.50;0.57;;;4.10;92.70;;;;;;4789586;29;20138;-78
2021/11/23 01:00:22;;;;;;;1.88;0.75;;;4.20;92.60;;;;;;4793883;29;20063;-78
2021/11/23 01:02:49;;;;;;;1.95;0.80;;;4.30;92.60;;;;;;4790838;29;20085;-77
2021/11/23 01:05:16;;;;;;;2.00;0.93;;;4.30;92.50;;;;;;4792012;29;20046;-77
2021/11/23 01:07:44;;;;;;;2.40;0.70;;;4.40;92.50;;;;;;4793465;29;20531;-77
2021/11/23 01:10:12;;;;;;;1.13;0.55;;;4.40;92.50;;;;;;4807225;29;20067;-77
2021/11/23 01:12:40;;;;;;;1.52;0.40;;;4.50;92.50;;;;;;4808678;29;20133;-77
2021/11/23 01:15:08;;;;;;;2.25;0.70;;;4.60;92.50;;;;;;4791650;29;20046;-78
2021/11/23 01:17:36;;;;;;;2.45;0.50;;;4.60;92.50;;;;;;4792374;29;20050;-77
2021/11/23 01:20:05;;;;;;;1.40;0.50;;;4.60;92.50;;;;;;4789160;29;20534;-77
2021/11/23 01:22:32;;;;;;;0.88;0.35;;;4.70;92.50;;;;;;4791254;29;20050;-77
2021/11/23 01:25:00;;;;;;;0.93;0.30;;;4.70;92.50;;;;;;4792855;29;20047;-77
2021/11/23 01:27:28;;;;;;;1.38;0.40;;;4.70;92.50;;;;;;4791295;29;20133;-78
2021/11/23 01:29:56;;;;;;;0.77;0.30;;;4.80;92.50;;;;;;4792260;29;20054;-77
2021/11/23 01:32:23;;;;;;;0.85;0.40;;;4.80;92.50;;;;;;4791892;29;20449;-77
2021/11/23 01:34:50;;;;;;;1.20;0.40;;;4.90;92.50;;;;;;4791098;29;20058;-77
2021/11/23 01:37:18;;;;;;;1.55;0.50;;;4.90;92.50;;;;;;4791195;29;20108;-78
2021/11/23 01:39:45;;;;;;;1.52;0.45;;;4.90;92.50;;;;;;4791757;29;20239;-77
2021/11/23 01:42:12;;;;;;;1.65;0.40;;;4.90;92.50;;;;;;4788532;29;20086;-77
2021/11/23 01:44:39;;;;;;;1.52;0.57;;;4.90;92.50;;;;;;4791923;29;20077;-78
2021/11/23 01:47:06;;;;;;;2.10;0.70;;;5.10;92.50;;;;;;4800904;29;20057;-77
2021/11/23 01:49:33;;;;;;;0.75;0.40;;;5.10;92.50;;;;;;4782581;29;20114;-77
2021/11/23 01:52:00;;;;;;;1.33;0.40;;;5.10;92.40;;;;;;4790015;29;20058;-77
2021/11/23 01:54:29;;;;;;;1.35;0.55;;;5.20;92.40;;;;;;4792209;29;20039;-77
2021/11/23 01:56:56;;;;;;;1.27;0.45;;;5.20;92.40;;;;;;4788219;29;20058;-77
2021/11/23 01:59:23;;;;;;;1.55;0.50;;;5.20;92.40;;;;;;4806372;29;20087;-77
2021/11/23 02:01:50;;;;;;;1.17;0.60;;;5.20;92.40;;;;;;4804679;29;20073;-77
2021/11/23 02:04:17;;;;;;;1.52;0.50;;;5.30;92.40;;;;;;4792465;29;20065;-78
2021/11/23 02:06:44;;;;;;;2.35;0.47;;;5.30;92.40;;;;;;4783755;29;20063;-77
2021/11/23 02:09:12;;;;;;;1.15;0.35;;;5.30;92.50;;;;;;4805778;29;20078;-77
2021/11/23 02:11:39;;;;;;;0.88;0.40;;;5.30;92.40;;;;;;4788297;29;20082;-77
2021/11/23 02:14:07;;;;;;;1.05;0.43;;;5.30;92.40;;;;;;4791913;29;20043;-77
2021/11/23 02:16:34;;;;;;;2.05;0.63;;;5.30;92.40;;;;;;4788604;29;20441;-77
2021/11/23 02:19:02;;;;;;;3.67;0.50;;;5.40;92.50;;;;;;4791697;29;20147;-77
2021/11/23 02:21:29;;;;;;;1.80;0.80;;;5.40;92.40;;;;;;4807811;29;20074;-77
2021/11/23 02:23:58;;;;;;;2.03;0.95;;;5.40;92.40;;;;;;4789177;29;20525;-77
2021/11/23 02:26:25;;;;;;;2.33;0.85;;;5.40;92.40;;;;;;4791431;29;20055;-77
2021/11/23 02:28:52;;;;;;;1.55;0.70;;;5.40;92.40;;;;;;4806678;29;20066;-77
2021/11/23 02:31:21;;;;;;;1.77;0.82;;;5.40;92.40;;;;;;4794028;29;20422;-77
2021/11/23 02:33:49;;;;;;;2.22;0.70;;;5.40;92.40;;;;;;4792079;29;20514;-78
2021/11/23 02:36:17;;;;;;;1.17;0.50;;;5.40;92.50;;;;;;4790279;29;20047;-77
2021/11/23 02:38:49;;;;;;;2.10;0.75;;;5.40;92.50;;;;;;4793052;29;20054;-78
2021/11/23 02:41:16;;;;;;;1.70;1.23;;;5.40;92.50;;;;;;4792609;29;20046;-77
2021/11/23 02:43:44;;;;;;;2.13;0.73;;;5.40;92.50;;;;;;4796505;29;20058;-77
2021/11/23 02:46:12;;;;;;;2.83;0.90;;;5.40;92.50;;;;;;4794720;29;20058;-77
2021/11/23 02:48:39;;;;;;;2.25;1.00;;;5.40;92.50;;;;;;4799737;29;20104;-77
2021/11/23 02:51:16;;;;;;;2.00;0.75;;;5.40;92.50;;;;;;4797390;29;20057;-77
2021/11/23 02:53:50;;;;;;;2.30;0.80;;;5.40;92.50;;;;;;4798430;29;20069;-78
2021/11/23 02:56:17;;;;;;;1.35;0.80;;;5.40;92.50;;;;;;4799212;29;20121;-77
2021/11/23 02:58:48;;;;;;;2.50;0.88;;;5.40;92.50;;;;;;4800485;29;20038;-77
2021/11/23 03:01:18;;;;;;;3.65;1.42;;;5.40;92.80;;;;;;4793748;29;20724;-77
2021/11/23 03:03:46;;;;;;;2.53;1.00;;;5.40;92.50;;;;;;4794417;29;20107;-77
2021/11/23 03:06:17;;;;;;;3.15;0.90;;;5.40;92.50;;;;;;4807701;29;20134;-77
2021/11/23 03:08:48;;;;;;;2.03;0.82;;;5.40;92.60;;;;;;4795146;29;20051;-77
2021/11/23 03:11:17;;;;;;;2.97;1.05;;;5.40;92.60;;;;;;4795449;29;20099;-77
2021/11/23 03:13:47;;;;;;;2.78;0.98;;;5.40;92.60;;;;;;4810159;29;20050;-78
2021/11/23 03:16:14;;;;;;;2.33;1.13;;;5.40;92.60;;;;;;4810471;29;20050;-77
2021/11/23 03:18:41;;;;;;;2.80;1.08;;;5.40;92.60;;;;;;4795407;29;20109;-77
2021/11/23 03:21:09;;;;;;;2.40;1.00;;;5.40;92.60;;;;;;4807428;29;20550;-77
2021/11/23 03:23:36;;;;;;;2.50;1.20;;;5.40;92.60;;;;;;4791814;29;20416;-77
2021/11/23 03:26:03;;;;;;;2.42;0.95;;;5.40;92.60;;;;;;4778683;29;20038;-77
2021/11/23 03:28:30;;;;;;;1.88;0.80;;;5.40;92.60;;;;;;4794518;29;20125;-77
2021/11/23 03:30:57;;;;;;;2.78;1.38;;;5.40;92.60;;;;;;4795084;29;20051;-78
2021/11/23 03:33:24;;;;;;;3.90;1.00;;;5.50;92.60;;;;;;4791536;29;20130;-77
2021/11/23 03:35:53;;;;;;;3.08;0.98;;;5.50;92.90;;;;;;4791803;29;20061;-78
2021/11/23 03:38:21;;;;;;;1.95;0.75;;;5.50;92.70;;;;;;4793353;29;20073;-77
2021/11/23 03:40:51;;;;;;;1.95;0.73;;;5.50;92.70;;;;;;4787945;29;20171;-77
2021/11/23 03:43:18;;;;;;;1.95;0.90;;;5.50;92.70;;;;;;4788989;29;21258;-77
2021/11/23 03:45:45;;;;;;;2.92;1.05;;;5.50;92.70;;;;;;4788065;29;20146;-78
2021/11/23 03:48:12;;;;;;;2.97;0.95;;;5.50;92.70;;;;;;4790649;29;20119;-77
2021/11/23 03:50:39;;;;;;;3.42;1.10;;;5.50;92.70;;;;;;4790744;29;20074;-77
2021/11/23 03:53:06;;;;;;;2.25;1.08;;;5.50;92.70;;;;;;4794703;29;20107;-78
2021/11/23 03:55:36;;;;;;;3.22;1.20;;;5.50;92.70;;;;;;4791487;29;20050;-78
2021/11/23 03:58:03;;;;;;;3.38;1.38;;;5.50;92.70;;;;;;4793582;29;20055;-77
2021/11/23 04:00:30;;;;;;;1.90;0.90;;;5.50;92.70;;;;;;4794803;29;20046;-77
2021/11/23 04:02:58;;;;;;;1.90;0.85;;;5.50;92.70;;;;;;4791085;29;20049;-77
2021/11/23 04:05:25;;;;;;;3.00;0.95;;;5.50;92.80;;;;;;4792066;29;20118;-77
2021/11/23 04:07:52;;;;;;;1.55;1.02;;;5.60;92.80;;;;;;4791249;29;20055;-77
2021/11/23 04:10:19;;;;;;;2.42;0.70;;;5.60;92.80;;;;;;4791569;29;20129;-77
2021/11/23 04:12:46;;;;;;;1.55;0.50;;;5.60;92.70;;;;;;4789351;29;20062;-77
2021/11/23 04:15:16;;;;;;;1.95;0.70;;;5.60;92.70;;;;;;4783178;29;20069;-77
2021/11/23 04:17:44;;;;;;;1.45;0.63;;;5.60;92.70;;;;;;4809701;29;20482;-77
2021/11/23 04:20:12;;;;;;;1.33;0.70;;;5.70;92.80;;;;;;4791064;29;20070;-77
2021/11/23 04:22:40;;;;;;;1.40;0.60;;;5.70;92.80;;;;;;4792025;29;20058;-77
2021/11/23 04:25:09;;;;;;;1.83;0.70;;;5.70;92.80;;;;;;4789421;29;20051;-77
2021/11/23 04:27:36;;;;;;;1.52;0.68;;;5.70;92.80;;;;;;4789752;29;20500;-77
2021/11/23 04:30:06;;;;;;;0.82;0.50;;;5.70;92.80;;;;;;4790736;29;20157;-78
2021/11/23 04:32:33;;;;;;;1.05;0.55;;;5.80;92.80;;;;;;4807216;29;20066;-77
2021/11/23 04:35:00;;;;;;;2.38;1.00;;;5.80;92.80;;;;;;4791097;29;20392;-77
2021/11/23 04:37:27;;;;;;;2.50;0.70;;;5.80;92.80;;;;;;4787369;29;20062;-78
2021/11/23 04:39:54;;;;;;;1.92;0.73;;;5.90;92.80;;;;;;4791720;29;20054;-77
2021/11/23 04:42:21;;;;;;;2.58;0.90;;;5.90;92.70;;;;;;4791329;29;20078;-78
2021/11/23 04:44:51;;;;;;;2.28;0.70;;;5.90;92.70;;;;;;4792345;29;20046;-77
2021/11/23 04:47:19;;;;;;;2.08;0.80;;;5.90;92.70;;;;;;4804929;29;20066;-77
2021/11/23 04:49:46;;;;;;;1.85;0.80;;;6.00;92.70;;;;;;4791281;29;20735;-77
2021/11/23 04:52:12;;;;;;;3.65;0.90;;;6.00;92.70;;;;;;4805000;29;20080;-77
2021/11/23 04:54:40;;;;;;;3.47;1.48;;;6.00;92.70;;;;;;4791223;29;20111;-78
2021/11/23 04:57:08;;;;;;;2.00;1.00;;;6.00;92.70;;;;;;4785091;29;20066;-77
2021/11/23 04:59:35;;;;;;;2.85;1.30;;;6.00;92.70;;;;;;4789379;29;20047;-77
2021/11/23 05:02:03;;;;;;;2.45;1.17;;;6.10;92.70;;;;;;4794153;29;20448;-77
2021/11/23 05:04:31;;;;;;;3.92;1.77;;;6.10;92.70;;;;;;4792840;29;20093;-77
2021/11/23 05:06:59;;;;;;;3.83;1.10;;;6.10;92.70;;;;;;4807968;29;20065;-77
2021/11/23 05:09:26;;;;;;;2.42;1.40;;;6.10;92.70;;;;;;4791942;29;20069;-78
2021/11/23 05:11:53;;;;;;;3.17;1.20;;;6.10;92.70;;;;;;4792256;29;20270;-77
2021/11/23 05:14:20;;;;;;;3.10;1.58;;;6.10;92.70;;;;;;4790025;29;20063;-77
2021/11/23 05:16:47;;;;;;;3.95;1.60;;;6.10;92.70;;;;;;4792052;29;20074;-77
2021/11/23 05:19:16;;;;;;;4.00;1.73;;;6.10;92.70;;;;;;4791043;29;20077;-78
2021/11/23 05:21:44;;;;;;;4.53;1.90;;;6.10;92.70;;;;;;4791499;29;21475;-78
2021/11/23 05:24:12;;;;;;;3.50;1.58;;;6.10;92.80;;;;;;4790928;29;20380;-77
2021/11/23 05:26:40;;;;;;;3.58;1.55;;;6.10;92.80;;;;;;4790686;29;20160;-78
2021/11/23 05:29:09;;;;;;;4.60;1.83;;;6.10;92.80;;;;;;4791000;29;20059;-77
2021/11/23 05:31:37;;;;;;;2.63;1.08;;;6.10;92.80;;;;;;4806926;29;20046;-78
2021/11/23 05:34:04;;;;;;;3.67;1.63;;;6.10;92.80;;;;;;4791108;29;20099;-78
2021/11/23 05:36:35;;;;;;;4.05;2.00;;;6.10;92.80;;;;;;4788984;29;20069;-77
2021/11/23 05:39:04;;;;;;;4.07;1.80;;;6.10;92.80;;;;;;4786489;29;20836;-77
2021/11/23 05:41:31;;;;;;;5.95;1.70;;;6.10;92.80;;;;;;4789084;29;20062;-79
2021/11/23 05:43:58;;;;;;;4.63;1.95;;;6.10;92.80;;;;;;4791431;29;20058;-77
2021/11/23 05:46:25;;;;;;;3.92;2.20;;;6.20;92.80;;;;;;4794988;29;20054;-78
2021/11/23 05:48:53;;;;;;;3.85;1.80;;;6.20;92.80;;;;;;4803641;29;20057;-77
2021/11/23 05:51:20;;;;;;;3.38;1.58;;;6.20;92.80;;;;;;4794592;29;20054;-78
2021/11/23 05:53:47;;;;;;;4.47;1.73;;;6.20;92.80;;;;;;4796844;29;20058;-78
2021/11/23 05:56:17;;;;;;;3.08;1.65;;;6.20;92.80;;;;;;4789185;29;20055;-77
2021/11/23 05:58:46;;;;;;;4.65;1.25;;;6.10;92.80;;;;;;4794666;29;20055;-77
2021/11/23 06:01:13;;;;;;;2.35;0.93;;;6.10;92.90;;;;;;4798546;29;20097;-77
2021/11/23 06:03:40;;;;;;;2.25;1.15;;;6.10;92.90;;;;;;4774785;29;20496;-77
2021/11/23 06:06:08;;;;;;;2.88;0.90;;;6.10;92.90;;;;;;4791862;29;20659;-76
2021/11/23 06:08:35;;;;;;;3.20;1.70;;;6.10;92.90;;;;;;4790943;29;20051;-76
2021/11/23 06:11:02;;;;;;;3.15;1.40;;;6.10;93.00;;;;;;4790722;29;20138;-77
2021/11/23 06:13:29;;;;;;;4.18;1.85;;;6.10;93.00;;;;;;4804843;29;20047;-76
2021/11/23 06:15:56;;;;;;;3.00;1.50;;;6.10;93.00;;;;;;4793975;29;20055;-77
2021/11/23 06:18:23;;;;;;;3.33;1.42;;;6.10;93.00;;;;;;4794768;29;20063;-77
2021/11/23 06:20:55;;;;;;;2.42;1.40;;;6.10;93.00;;;;;;4811297;29;20065;-77
2021/11/23 06:23:24;;;;;;;5.18;1.77;;;6.10;93.00;;;;;;4794785;29;20061;-78
2021/11/23 06:25:54;;;;;;;3.38;1.48;;;6.10;93.00;;;;;;4794812;29;20054;-79
2021/11/23 06:28:22;;;;;;;3.78;1.35;;;6.20;93.00;;;;;;4793312;29;20549;-78
2021/11/23 06:30:50;;;;;;;2.50;1.30;;;6.20;93.00;;;;;;4790223;29;20061;-80
2021/11/23 06:33:17;;;;;;;3.20;1.50;;;6.20;93.00;;;;;;4804743;29;20511;-79
2021/11/23 06:35:45;;;;;;;3.95;1.85;;;6.20;93.00;;;;;;4789525;29;20039;-78
2021/11/23 06:38:12;;;;;;;4.68;1.50;;;6.20;93.10;;;;;;4792906;29;20130;-76
2021/11/23 06:40:39;;;;;;;3.97;1.40;;;6.20;93.10;;;;;;4792680;29;20054;-77
2021/11/23 06:43:07;;;;;;;5.53;1.80;;;6.20;93.10;;;;;;4806925;29;20559;-77
2021/11/23 06:45:35;;;;;;;3.30;1.17;;;6.20;93.10;;;;;;4812972;29;20039;-80
2021/11/23 06:48:03;;;;;;;3.10;1.17;;;6.20;93.10;;;;;;4795780;29;20050;-81
2021/11/23 06:50:32;;;;;;;3.38;1.40;;;6.30;93.10;;;;;;4793930;29;20055;-80
2021/11/23 06:53:05;;;;;;;2.30;1.13;;;6.20;93.10;;;;;;4794808;29;20117;-77
2021/11/23 06:55:32;;;;;;;3.40;1.38;;;6.20;93.10;;;;;;4793000;29;20089;-78
2021/11/23 06:58:00;;;;;;;4.40;2.08;;;6.20;93.10;;;;;;4805435;29;20065;-78
2021/11/23 07:00:28;;;;;;;3.08;1.08;;;6.20;93.20;;;;;;4792519;29;20677;-78
2021/11/23 07:02:56;;;;;;;3.45;1.30;;;6.20;93.20;;;;;;4793330;29;20063;-79
2021/11/23 07:05:23;;;;;;;2.20;1.05;;;6.20;93.20;;;;;;4806280;29;21289;-77
2021/11/23 07:07:51;;;;;;;2.38;1.42;;;6.20;93.20;;;;;;4794125;29;20054;-79
2021/11/23 07:10:18;;;;;;;2.53;0.98;;;6.20;93.30;;;;;;4790527;29;20050;-77
2021/11/23 07:12:59;;;;;;;2.00;1.00;;;6.20;93.30;;;;;;4788465;29;20111;-78
2021/11/23 07:15:26;;;;;;;2.05;1.00;;;6.20;93.30;;;;;;4786945;29;20076;-77
2021/11/23 07:17:53;;;;;;;1.40;0.60;;;6.20;93.30;;;;;;4792808;29;20086;-78
2021/11/23 07:20:21;;;;;;;1.80;0.90;;;6.10;93.30;;;;;;4780589;29;20055;-78
2021/11/23 07:22:48;;;;;;;2.17;1.00;;;6.10;93.60;;;;;;4790632;29;20528;-77
2021/11/23 07:25:15;;;;;;;2.42;0.98;;;6.10;93.50;;;;;;4792611;29;20053;-77
2021/11/23 07:27:43;;;;;;;1.50;0.63;;;6.20;93.50;;;;;;4786402;29;20046;-77
2021/11/23 07:30:10;;;;;;;1.15;0.40;;;6.20;93.50;;;;;;4803584;29;20084;-77
2021/11/23 07:32:37;;;;;;;1.77;0.60;;;6.20;93.50;;;;;;4786488;29;20082;-78
2021/11/23 07:35:05;;;;;;;2.58;0.70;;;6.30;93.50;;;;;;4787963;29;20710;-79
2021/11/23 07:37:40;;;;;;;1.95;0.80;;;6.40;93.50;;;;;;4789232;29;20138;-78
2021/11/23 07:40:08;;;;;;;1.05;0.40;;;6.40;93.40;;;;;;4797773;29;20043;-78
2021/11/23 07:42:35;;;;;;;1.98;0.82;;;6.50;93.40;;;;;;4788951;29;20512;-78
2021/11/23 07:45:03;;;;;;;1.65;0.80;;;6.60;93.30;;;;;;4793273;29;20046;-78
2021/11/23 07:47:31;;;;;;;2.58;1.08;;;6.60;93.30;;;;;;4809495;29;20050;-84
2021/11/23 07:49:58;;;;;;;2.15;0.93;;;6.70;93.30;;;;;;4794516;29;20107;-77
2021/11/23 07:52:25;;;;;;;2.47;0.93;;;6.70;93.20;;;;;;4795278;29;20427;-78
2021/11/23 07:54:52;;;;;;;2.30;0.88;;;6.70;93.20;;;;;;4793592;29;20046;-78
2021/11/23 07:57:19;;;;;;;2.08;0.73;;;6.80;93.20;;;;;;4791386;29;21601;-78
2021/11/23 07:59:46;;;;;;;2.65;0.82;;;6.80;93.20;;;;;;4791372;29;20611;-78
2021/11/23 08:02:13;;;;;;;1.33;0.60;;;6.90;93.20;;;;;;4794008;29;20556;-78
2021/11/23 08:04:41;;;;;;;2.47;0.90;;;6.90;93.20;;;;;;4791369;29;20108;-78
2021/11/23 08:07:08;;;;;;;1.58;0.80;;;6.90;93.20;;;;;;4791822;29;20071;-81
2021/11/23 08:09:35;;;;;;;1.83;0.70;;;7.00;93.20;;;;;;4793829;29;20070;-79
2021/11/23 08:12:03;;;;;;;1.75;0.77;;;7.00;93.20;;;;;;4793418;29;20077;-81
2021/11/23 08:14:31;;;;;;;1.58;0.75;;;7.10;93.20;;;;;;4789301;29;20061;-82
2021/11/23 08:16:58;;;;;;;2.05;1.00;;;7.10;93.20;;;;;;4792315;29;20082;-81
2021/11/23 08:19:25;;;;;;;1.52;0.70;;;7.20;93.20;;;;;;4792233;29;20085;-79
2021/11/23 08:21:52;;;;;;;2.45;1.20;;;7.20;93.20;;;;;;4792120;29;20103;-81
2021/11/23 08:24:19;;;;;;;2.53;1.10;;;7.20;93.20;;;;;;4792090;29;20050;-80
2021/11/23 08:26:46;;;;;;;2.90;1.27;;;7.20;93.20;;;;;;4792059;29;20047;-81
2021/11/23 08:29:13;;;;;;;3.42;1.20;;;7.20;93.20;;;;;;4790810;29;20457;-79
2021/11/23 08:31:40;;;;;;;4.05;1.40;;;7.20;93.20;;;;;;4791261;29;20542;-80
2021/11/23 08:34:07;;;;;;;3.67;1.42;;;7.10;93.30;;;;;;4793280;29;20054;-81
2021/11/23 08:36:34;;;;;;;3.63;1.58;;;7.10;93.30;;;;;;4808384;29;20121;-79
2021/11/23 08:39:04;;;;;;;3.40;1.55;;;7.10;93.30;;;;;;4792295;29;20074;-80
2021/11/23 08:41:31;;;;;;;4.28;1.55;;;7.10;93.40;;;;;;4787745;29;20074;-79
2021/11/23 08:43:58;;;;;;;3.05;1.75;;;7.10;93.40;;;;;;4787173;29;20132;-80
2021/11/23 08:46:25;;;;;;;2.88;1.75;;;7.10;93.40;;;;;;4790031;29;20042;-80
2021/11/23 08:48:52;;;;;;;4.53;1.83;;;7.10;93.50;;;;;;4797761;29;20100;-80
2021/11/23 08:51:23;;;;;;;3.65;1.70;;;7.10;93.50;;;;;;4794056;29;20806;-79
2021/11/23 08:53:51;;;;;;;4.38;2.63;;;7.10;93.50;;;;;;4787109;29;20075;-80
2021/11/23 08:56:18;;;;;;;4.30;2.28;;;7.10;93.50;;;;;;4803900;29;20105;-79
2021/11/23 08:58:49;;;;;;;5.32;2.72;;;7.10;93.50;;;;;;4802992;29;20062;-80
2021/11/23 09:01:20;;;;;;;3.88;1.70;;;7.10;93.60;;;;;;4798025;29;20104;-80
2021/11/23 09:03:48;;;;;;;3.97;2.08;;;7.20;93.60;;;;;;4767274;29;20051;-80
2021/11/23 09:06:15;;;;;;;4.05;1.77;;;7.30;93.60;;;;;;4791768;29;20127;-80
2021/11/23 09:08:55;;;;;;;3.75;2.20;;;7.30;93.60;;;;;;4793961;29;20488;-80
2021/11/23 09:11:23;;;;;;;3.95;1.88;;;7.40;93.50;;;;;;4792585;29;20051;-79
2021/11/23 09:13:51;;;;;;;2.97;2.00;;;7.40;93.50;;;;;;4796761;29;20043;-80
2021/11/23 09:16:18;;;;;;;3.33;1.48;;;7.50;93.60;;;;;;4791894;29;20050;-81
2021/11/23 09:18:46;;;;;;;4.03;2.33;;;7.60;93.60;;;;;;4787383;29;20083;-81
2021/11/23 09:21:13;;;;;;;3.65;2.08;;;7.70;93.50;;;;;;4786217;29;20416;-81
2021/11/23 09:23:40;;;;;;;4.28;2.42;;;7.70;93.50;;;;;;4787844;29;20371;-81
2021/11/23 09:26:07;;;;;;;3.05;1.90;;;7.80;93.40;;;;;;4785906;29;20089;-80
2021/11/23 09:28:34;;;;;;;4.72;2.35;;;7.90;93.40;;;;;;4785643;29;20074;-81
2021/11/23 09:31:01;;;;;;;3.38;1.45;;;8.00;93.40;;;;;;4795701;29;20051;-80
2021/11/23 09:33:29;;;;;;;3.40;1.55;;;8.10;93.40;;;;;;4784136;29;20059;-81
2021/11/23 09:35:56;;;;;;;5.43;1.80;;;8.20;93.30;;;;;;4790507;29;20115;-80
2021/11/23 09:38:23;;;;;;;3.70;1.73;;;8.30;93.30;;;;;;4780006;29;20051;-81
2021/11/23 09:40:50;;;;;;;4.93;2.30;;;8.30;93.20;;;;;;4789856;29;20043;-80
2021/11/23 09:43:17;;;;;;;6.15;2.60;;;8.40;93.20;;;;;;4789010;29;20467;-80
2021/11/23 09:45:46;;;;;;;4.60;2.60;;;8.40;93.20;;;;;;4789659;29;20055;-81
2021/11/23 09:48:13;;;;;;;4.25;2.58;;;8.40;93.20;;;;;;4788337;29;20076;-80
2021/11/23 09:50:43;;;;;;;5.57;2.90;;;8.40;93.30;;;;;;4788260;29;20051;-81
2021/11/23 09:53:10;;;;;;;7.82;3.00;;;8.40;93.50;;;;;;4793363;29;20130;-80
2021/11/23 09:55:39;;;;;;;4.13;2.40;;;8.40;93.30;;;;;;4792128;29;20135;-81
2021/11/23 09:58:09;;;;;;;4.80;2.55;;;8.40;93.30;;;;;;4792791;29;20488;-79
2021/11/23 10:00:45;;;;;;;6.20;2.40;;;8.50;93.30;;;;;;4792881;29;20502;-80
2021/11/23 10:03:16;;;;;;;5.22;2.38;;;8.50;93.30;;;;;;4791356;29;20066;-79
2021/11/23 10:05:44;;;;;;;4.25;2.38;;;8.50;93.30;;;;;;4782266;29;20057;-80
2021/11/23 10:08:17;;;;;;;4.03;1.95;;;8.60;93.30;;;;;;4791538;29;20055;-80
2021/11/23 10:10:52;;;;;;;4.72;1.83;;;8.60;93.30;;;;;;4794574;29;20126;-79
2021/11/23 10:13:22;;;;;;;4.25;2.25;;;8.70;93.30;;;;;;4793236;29;20067;-80
2021/11/23 10:15:53;;;;;;;5.18;1.83;;;8.70;93.30;;;;;;4793766;29;20111;-80
2021/11/23 10:18:37;;;;;;;3.35;1.60;;;8.70;93.20;;;;;;4792977;29;20131;-80
2021/11/23 10:21:07;;;;;;;5.70;1.70;;;8.70;93.20;;;;;;4793929;29;20061;-80
2021/11/23 10:23:42;;;;;;;3.42;1.77;;;8.70;93.30;;;;;;4788705;29;20500;-81
2021/11/23 10:26:13;;;;;;;4.95;2.13;;;8.70;93.30;;;;;;4791979;29;20416;-80
2021/11/23 10:28:57;;;;;;;3.72;1.90;;;8.70;93.30;;;;;;4790739;29;20369;-81
2021/11/23 10:31:33;;;;;;;3.05;1.45;;;8.80;93.30;;;;;;4805559;29;20446;-80
2021/11/23 10:34:03;;;;;;;3.00;1.10;;;8.90;93.30;;;;;;4793865;29;20057;-80
2021/11/23 10:36:37;;;;;;;3.67;1.30;;;8.90;93.30;;;;;;4792290;29;20099;-81
2021/11/23 10:39:04;;;;;;;3.15;1.08;;;9.00;93.30;;;;;;4789981;29;20054;-80
2021/11/23 10:41:30;;;;;;;2.78;1.13;;;9.00;93.30;;;;;;4787809;29;20067;-80
2021/11/23 10:43:58;;;;;;;1.67;0.80;;;9.10;93.30;;;;;;4787227;29;20074;-80
2021/11/23 10:46:29;;;;;;;3.08;0.90;;;9.20;93.30;;;;;;4788652;29;20055;-80
2021/11/23 10:49:00;;;;;;;2.58;1.08;;;9.20;93.30;;;;;;4790698;29;20059;-80
2021/11/23 10:51:38;;;;;;;2.65;0.90;;;9.20;93.30;;;;;;4789321;29;20065;-80
2021/11/23 10:54:16;;;;;;;1.30;0.45;;;9.30;93.20;;;;;;4792586;29;20166;-80
2021/11/23 10:57:16;;;;;;;1.45;0.50;;;9.30;93.20;;;;;;4789578;29;20115;-80
2021/11/23 10:59:43;;;;;;;2.28;1.10;;;9.30;93.20;;;;;;4781230;29;20550;-80
2021/11/23 11:02:10;;;;;;;3.47;1.45;;;9.30;93.30;;;;;;4790010;29;20066;-80
2021/11/23 11:04:41;;;;;;;2.72;1.38;;;9.40;93.20;;;;;;4791381;29;20070;-78
2021/11/23 11:07:09;;;;;;;4.22;1.35;;;9.50;93.20;;;;;;4790444;29;20484;-79
2021/11/23 11:09:37;;;;;;;3.88;1.40;;;9.50;93.10;;;;;;4789997;29;20193;-78
2021/11/23 11:12:05;;;;;;;2.13;0.90;;;9.50;93.10;;;;;;4794680;29;20054;-79
2021/11/23 11:14:36;;;;;;;4.32;1.27;;;9.40;93.10;;;;;;4802736;29;20112;-79
2021/11/23 11:17:08;;;;;;;2.10;0.80;;;9.30;93.20;;;;;;4787868;29;20066;-79
2021/11/23 11:19:48;;;;;;;1.95;0.95;;;9.30;93.30;;;;;;4793367;29;20054;-82
2021/11/23 11:22:21;;;;;;;1.67;0.80;;;9.30;93.40;;;;;;4787268;29;20063;-79
2021/11/23 11:25:23;;;;;;;3.88;1.65;;;9.20;93.40;;;;;;4786041;29;20052;-79
2021/11/23 11:27:51;;;;;;;2.15;0.60;;;9.30;93.50;;;;;;4783835;29;20135;-79
2021/11/23 11:30:40;;;;;;;2.38;0.80;;;9.40;93.40;;;;;;4806795;29;20047;-81
2021/11/23 11:33:07;;;;;;;1.77;0.85;;;9.60;93.30;;;;;;4789565;29;20055;-82
2021/11/23 11:35:49;;;;;;;1.23;0.52;;;9.70;93.20;;;;;;4807656;29;20063;-79
2021/11/23 11:38:25;;;;;;;1.67;0.63;;;9.90;93.20;;;;;;4785167;29;20040;-80
2021/11/23 11:40:56;;;;;;;2.47;0.95;;;10.00;93.10;;;;;;4788713;29;20054;-82
2021/11/23 11:43:40;;;;;;;1.92;0.60;;;10.00;93.00;;;;;;4790593;29;21208;-83
2021/11/23 11:46:10;;;;;;;2.92;0.50;;;10.10;93.00;;;;;;4791238;29;20054;-79
2021/11/23 11:48:38;;;;;;;1.55;0.43;;;10.10;93.00;;;;;;4789844;29;20067;-78
2021/11/23 11:51:06;;;;;;;1.40;0.60;;;10.10;93.00;;;;;;4790377;29;20051;-78
2021/11/23 11:54:19;;;;;;;1.48;0.60;;;10.20;93.00;;;;;;4789764;29;20059;-82
2021/11/23 11:56:48;;;;;;;1.77;0.32;;;10.20;93.00;;;;;;4774727;29;20051;-82
2021/11/23 11:59:18;;;;;;;0.77;0.30;;;10.20;93.00;;;;;;4791416;29;20051;-80
2021/11/23 12:02:01;;;;;;;0.40;0.20;;;10.20;93.00;;;;;;4791303;29;20443;-80
2021/11/23 12:05:12;;;;;;;1.05;0.30;;;10.20;93.00;;;;;;4801365;29;20129;-80
2021/11/23 12:07:52;;;;;;;0.65;0.25;;;10.10;93.00;;;;;;4807556;29;20051;-81
2021/11/23 12:10:28;;;;;;;0.77;0.30;;;10.10;93.10;;;;;;4795243;29;20047;-80
2021/11/23 12:12:55;;;;;;;0.98;0.30;;;10.00;93.10;;;;;;4808971;29;20070;-78
2021/11/23 12:15:49;;;;;;;0.43;0.20;;;10.00;93.10;;;;;;4793017;29;20055;-79
2021/11/23 12:18:45;;;;;;;0.55;0.28;;;9.90;93.10;;;;;;4789952;29;20047;-79
2021/11/23 12:21:20;;;;;;;1.55;0.40;;;9.90;93.30;;;;;;4789420;29;20100;-80
2021/11/23 12:23:55;;;;;;;1.30;0.30;;;9.90;93.20;;;;;;4790966;29;20051;-78
2021/11/23 12:26:37;;;;;;;0.60;0.20;;;9.90;93.20;;;;;;4792136;29;20074;-78
2021/11/23 12:29:07;;;;;;;0.20;0.10;;;9.90;93.30;;;;;;4791920;29;20078;-78
2021/11/23 12:31:42;;;;;;;1.00;0.40;;;9.90;93.30;;;;;;4789335;29;20066;-78
2021/11/23 12:34:10;;;;;;;0.52;0.20;;;9.90;93.30;;;;;;4792409;29;20075;-78
2021/11/23 12:36:44;;;;;;;0.52;0.30;;;9.90;93.20;;;;;;4790656;29;20128;-77
2021/11/23 12:39:38;;;;;;;2.03;0.47;;;9.90;93.20;;;;;;4790184;29;20511;-78
2021/11/23 12:42:10;;;;;;;1.58;0.77;;;9.90;93.20;;;;;;4776104;29;20408;-78
2021/11/23 12:44:42;;;;;;;1.27;0.60;;;10.00;93.20;;;;;;4791658;29;20055;-79
2021/11/23 12:47:14;;;;;;;5.18;1.38;;;10.00;93.20;;;;;;4795187;29;20059;-79
2021/11/23 12:49:43;;;;;;;1.60;0.50;;;10.00;93.20;;;;;;4789138;29;20061;-79
2021/11/23 12:52:15;;;;;;;1.15;0.57;;;10.10;93.10;;;;;;4789478;29;20139;-79
2021/11/23 12:54:45;;;;;;;0.85;0.50;;;10.10;93.10;;;;;;4792719;29;20107;-80
2021/11/23 12:57:14;;;;;;;1.08;0.40;;;10.20;93.20;;;;;;4790459;29;20130;-79
2021/11/23 12:59:53;;;;;;;0.98;0.38;;;10.20;93.10;;;;;;4791548;29;20585;-79
2021/11/23 13:02:28;;;;;;;1.45;0.40;;;10.30;93.10;;;;;;4780826;29;20051;-80
2021/11/23 13:04:59;;;;;;;1.40;0.47;;;10.40;93.00;;;;;;4791543;29;20597;-79
2021/11/23 13:07:28;;;;;;;1.33;0.50;;;10.40;93.00;;;;;;4783178;29;20535;-78